sim
Sign-in with your pilot id or email,
or register
Callsign
Passwort

Schedule Details

Flight Number: OEO8587
Departure: Gdansk Lech Walesa Airport (EPGD) at 15:05
Arrival: Munich Airport (EDDM) at 16:50

Weather Information
Getting current METAR information for EPGD 220130Z 26001KT CAVOK 08/07 Q1015
Getting current METAR information for EDDM 220150Z 33002KT 3000 1100N R08L/0600N R08R/0800U BCFG NSC 08/08 Q1014 TEMPO 2500

Schedule Frequency

Route Map